Yuho Maru No.3 — JD2491 — position and weather

sailwx.info

Track history (hours):
 
Tides and Currents Weather Stations Pressure Air Temp Water Temp Dewpoint Dewpoint Depression Visibility Wind Speed Wind Dir Waves Ship Positions

Yuho Maru No.3

Last reported at 2015-Jul-02 08:33 UTC. Time now 2015-Jul-03 23:41 UTC.
Position N 34°37' E 135°03'.

Length 65 m; draft 4.2 m.

Type: Tanker. MMSI: 431000336.

Date/timePositionNaut miles runAvg speedWind from/ knotsBaromVisibWave heightAir tempDewpointWater temp
2015-Jul-02 08:33N 34°37' E 135°03'1111.2
2015-Jul-02 07:33N 34°34' E 135°16'8 4.0
2015-Jul-02 05:32N 34°32' E 135°25'0 0.0
2015-Jul-02 04:33N 34°32' E 135°25'0 0.0
2015-Jul-02 02:26N 34°32' E 135°25'0 0.0
2015-Jul-02 01:28N 34°32' E 135°25'0 0.0
2015-Jul-02 00:33N 34°32' E 135°25'1 1.0
2015-Jul-01 23:32N 34°33' E 135°26'0 0.0
2015-Jul-01 22:33N 34°33' E 135°26'0 0.0
2015-Jul-01 21:31N 34°33' E 135°26'0 0.0
2015-Jul-01 20:33N 34°33' E 135°26'0 0.0
2015-Jul-01 19:33N 34°33' E 135°26'0 0.1
2015-Jul-01 18:33N 34°33' E 135°26'0 0.0
2015-Jul-01 17:32N 34°33' E 135°26'0 0.0
2015-Jul-01 16:33N 34°33' E 135°26'0 0.0
2015-Jul-01 15:33N 34°33' E 135°26'0 0.0
2015-Jul-01 14:30N 34°33' E 135°26'0 0.1
2015-Jul-01 13:33N 34°33' E 135°26'0 0.0
2015-Jul-01 12:28N 34°33' E 135°26'0 0.0
2015-Jul-01 11:33N 34°33' E 135°26'0 0.0
2015-Jul-01 10:33N 34°33' E 135°26'7 7.5
2015-Jul-01 09:33N 34°34' E 135°17'1312.8
2015-Jul-01 08:33N 34°37' E 135°02'1 0.0
2015-Jun-30 06:33N 34°37' E 135°02'1010.5
2015-Jun-30 05:33N 34°34' E 135°14'9 8.0
2015-Jun-30 04:25N 34°32' E 135°25'0 0.0
2015-Jun-30 02:33N 34°32' E 135°25'0 0.0
2015-Jun-30 01:33N 34°32' E 135°25'0 0.0
2015-Jun-30 00:33N 34°32' E 135°25'1 0.1
2015-Jun-29 09:27N 34°31' E 135°24'1011.2
2015-Jun-29 08:33N 34°34' E 135°13'1211.3
2015-Jun-29 07:30N 34°37' E 134°59'  
2015-Jun-26 06:04N 34°37' E 135°01'612.3
2015-Jun-26 05:33N 34°35' E 135°08'1212.3
2015-Jun-26 04:33N 34°32' E 135°23'2 0.4
2015-Jun-26 00:08N 34°32' E 135°25'0 0.1
2015-Jun-25 23:30N 34°32' E 135°25'1 0.8
2015-Jun-25 22:33N 34°31' E 135°24'0 0.0
2015-Jun-25 21:33N 34°31' E 135°24'0 0.0
2015-Jun-25 20:33N 34°31' E 135°24'0 0.0
2015-Jun-25 19:33N 34°31' E 135°24'0 0.0
2015-Jun-25 18:33N 34°31' E 135°24'0 0.0
2015-Jun-25 17:33N 34°31' E 135°24'0 0.0
2015-Jun-25 16:32N 34°31' E 135°24'0 0.0
2015-Jun-25 15:33N 34°31' E 135°24'0 0.0
2015-Jun-25 14:33N 34°31' E 135°24'0 0.0
2015-Jun-25 13:33N 34°31' E 135°24'0 0.0
2015-Jun-25 12:33N 34°31' E 135°24'0 0.0
2015-Jun-25 11:33N 34°31' E 135°24'0 0.0
2015-Jun-25 10:33N 34°31' E 135°24'0 0.0
2015-Jun-25 09:33N 34°31' E 135°24'2 1.6
2015-Jun-25 08:32N 34°32' E 135°23'1313.2
2015-Jun-25 07:33N 34°34' E 135°08'1211.3
2015-Jun-25 06:32N 34°37' E 134°54'  
Track history (hours):
 
Tides and Currents Weather Stations Pressure Air Temp Water Temp Dewpoint Dewpoint Depression Visibility Wind Speed Wind Dir Waves Ship Positions

Yuho Maru No.3

Last reported at 2015-Jul-02 08:33 UTC. Time now 2015-Jul-03 23:41 UTC.
Position N 34°37' E 135°03'.

Length 65 m; draft 4.2 m.

Type: Tanker. MMSI: 431000336.

Date/timePositionNaut miles runAvg speedWind from/ knotsBaromVisibWave heightAir tempDewpointWater temp
2015-Jul-02 08:33N 34°37' E 135°03'1111.2
2015-Jul-02 07:33N 34°34' E 135°16'8 4.0
2015-Jul-02 05:32N 34°32' E 135°25'0 0.0
2015-Jul-02 04:33N 34°32' E 135°25'0 0.0
2015-Jul-02 02:26N 34°32' E 135°25'0 0.0
2015-Jul-02 01:28N 34°32' E 135°25'0 0.0
2015-Jul-02 00:33N 34°32' E 135°25'1 1.0
2015-Jul-01 23:32N 34°33' E 135°26'0 0.0
2015-Jul-01 22:33N 34°33' E 135°26'0 0.0
2015-Jul-01 21:31N 34°33' E 135°26'0 0.0
2015-Jul-01 20:33N 34°33' E 135°26'0 0.0
2015-Jul-01 19:33N 34°33' E 135°26'0 0.1
2015-Jul-01 18:33N 34°33' E 135°26'0 0.0
2015-Jul-01 17:32N 34°33' E 135°26'0 0.0
2015-Jul-01 16:33N 34°33' E 135°26'0 0.0
2015-Jul-01 15:33N 34°33' E 135°26'0 0.0
2015-Jul-01 14:30N 34°33' E 135°26'0 0.1
2015-Jul-01 13:33N 34°33' E 135°26'0 0.0
2015-Jul-01 12:28N 34°33' E 135°26'0 0.0
2015-Jul-01 11:33N 34°33' E 135°26'0 0.0
2015-Jul-01 10:33N 34°33' E 135°26'7 7.5
2015-Jul-01 09:33N 34°34' E 135°17'1312.8
2015-Jul-01 08:33N 34°37' E 135°02'1 0.0
2015-Jun-30 06:33N 34°37' E 135°02'1010.5
2015-Jun-30 05:33N 34°34' E 135°14'9 8.0
2015-Jun-30 04:25N 34°32' E 135°25'0 0.0
2015-Jun-30 02:33N 34°32' E 135°25'0 0.0
2015-Jun-30 01:33N 34°32' E 135°25'0 0.0
2015-Jun-30 00:33N 34°32' E 135°25'1 0.1
2015-Jun-29 09:27N 34°31' E 135°24'1011.2
2015-Jun-29 08:33N 34°34' E 135°13'1211.3
2015-Jun-29 07:30N 34°37' E 134°59'  
2015-Jun-26 06:04N 34°37' E 135°01'612.3
2015-Jun-26 05:33N 34°35' E 135°08'1212.3
2015-Jun-26 04:33N 34°32' E 135°23'2 0.4
2015-Jun-26 00:08N 34°32' E 135°25'0 0.1
2015-Jun-25 23:30N 34°32' E 135°25'1 0.8
2015-Jun-25 22:33N 34°31' E 135°24'0 0.0
2015-Jun-25 21:33N 34°31' E 135°24'0 0.0
2015-Jun-25 20:33N 34°31' E 135°24'0 0.0
2015-Jun-25 19:33N 34°31' E 135°24'0 0.0
2015-Jun-25 18:33N 34°31' E 135°24'0 0.0
2015-Jun-25 17:33N 34°31' E 135°24'0 0.0
2015-Jun-25 16:32N 34°31' E 135°24'0 0.0
2015-Jun-25 15:33N 34°31' E 135°24'0 0.0
2015-Jun-25 14:33N 34°31' E 135°24'0 0.0
2015-Jun-25 13:33N 34°31' E 135°24'0 0.0
2015-Jun-25 12:33N 34°31' E 135°24'0 0.0
2015-Jun-25 11:33N 34°31' E 135°24'0 0.0
2015-Jun-25 10:33N 34°31' E 135°24'0 0.0
2015-Jun-25 09:33N 34°31' E 135°24'2 1.6
2015-Jun-25 08:32N 34°32' E 135°23'1313.2
2015-Jun-25 07:33N 34°34' E 135°08'1211.3
2015-Jun-25 06:32N 34°37' E 134°54'  

Dump ship's entire track history